Time,TemperatureF,DewpointF,PressureIn,WindDirection,WindDirectionDegrees,WindSpeedMPH,WindSpeedGustMPH,Humidity,HourlyPrecipIn,Conditions,Clouds,dailyrainin,SolarRadiationWatts/m^2,SoftwareType,DateUTC
2013-08-11 00:03:00,56.3,55.8,29.95,West,277,1.0,12.0,98,0.00,,,0.00,0.0,meteohub,2013-08-11 07:03:00,
2013-08-11 00:08:00,56.3,55.8,29.95,SSW,213,4.0,12.0,98,0.00,,,0.00,0.0,meteohub,2013-08-11 07:08:00,
2013-08-11 00:13:00,56.1,55.6,29.95,West,271,1.0,12.0,98,0.00,,,0.00,0.0,meteohub,2013-08-11 07:13:00,
2013-08-11 00:18:00,56.1,55.6,29.95,West,273,1.0,14.0,98,0.00,,,0.00,0.0,meteohub,2013-08-11 07:18:00,
2013-08-11 00:23:00,55.9,55.4,29.95,SW,226,5.0,14.0,98,0.00,,,0.00,0.0,meteohub,2013-08-11 07:23:00,
2013-08-11 00:28:00,55.9,55.4,29.95,WNW,290,9.0,14.0,98,0.00,,,0.00,0.0,meteohub,2013-08-11 07:28:00,
2013-08-11 00:34:00,55.9,55.4,29.95,SSW,196,3.0,12.0,98,0.00,,,0.00,0.0,meteohub,2013-08-11 07:34:00,
2013-08-11 00:39:00,55.9,55.4,29.95,SW,228,4.0,12.0,98,0.00,,,0.00,0.0,meteohub,2013-08-11 07:39:00,
2013-08-11 00:44:00,55.8,55.2,29.95,WNW,282,1.0,12.0,98,0.00,,,0.00,0.0,meteohub,2013-08-11 07:44:00,
2013-08-11 00:49:00,55.6,55.0,29.95,West,278,2.0,13.0,98,0.00,,,0.00,0.0,meteohub,2013-08-11 07:49:00,
2013-08-11 00:54:00,55.6,55.0,29.95,WNW,282,1.0,13.0,98,0.00,,,0.00,0.0,meteohub,2013-08-11 07:54:00,
2013-08-11 01:00:00,55.6,55.0,29.95,NW,323,4.0,12.0,98,0.00,,,0.00,0.0,meteohub,2013-08-11 08:00:00,
2013-08-11 01:05:00,55.6,55.0,29.95,WSW,249,4.0,12.0,98,0.00,,,0.00,0.0,meteohub,2013-08-11 08:05:00,
2013-08-11 01:10:00,55.6,55.0,29.95,SW,223,6.0,11.0,98,0.00,,,0.00,0.0,meteohub,2013-08-11 08:10:00,
2013-08-11 01:15:00,55.6,55.0,29.95,West,274,5.0,13.0,98,0.00,,,0.00,0.0,meteohub,2013-08-11 08:15:00,
2013-08-11 01:20:00,55.6,55.0,29.95,WSW,249,6.0,13.0,98,0.00,,,0.00,0.0,meteohub,2013-08-11 08:20:00,
2013-08-11 01:25:00,55.6,55.0,29.95,West,277,5.0,13.0,98,0.00,,,0.00,0.0,meteohub,2013-08-11 08:25:00,
2013-08-11 01:30:00,55.6,55.0,29.95,SW,228,7.0,11.0,98,0.00,,,0.00,0.0,meteohub,2013-08-11 08:30:00,
2013-08-11 01:35:00,55.6,55.0,29.95,WSW,244,10.0,13.0,98,0.00,,,0.00,0.0,meteohub,2013-08-11 08:35:00,
2013-08-11 01:40:00,55.6,55.0,29.95,WSW,245,9.0,13.0,98,0.00,,,0.00,0.0,meteohub,2013-08-11 08:40:00,
2013-08-11 01:45:00,55.6,55.2,29.94,SSW,195,2.0,13.0,99,0.00,,,0.00,0.0,meteohub,2013-08-11 08:45:00,
2013-08-11 01:50:00,55.6,55.2,29.94,West,267,7.0,12.0,99,0.00,,,0.00,0.0,meteohub,2013-08-11 08:50:00,
2013-08-11 01:56:00,55.6,55.2,29.94,SW,225,2.0,10.0,99,0.00,,,0.00,0.0,meteohub,2013-08-11 08:56:00,
2013-08-11 02:01:00,55.4,54.9,29.94,SW,221,5.0,10.0,98,0.00,,,0.00,0.0,meteohub,2013-08-11 09:01:00,
2013-08-11 02:06:00,55.4,55.0,29.94,WNW,298,3.0,11.0,99,0.00,,,0.00,0.0,meteohub,2013-08-11 09:06:00,
2013-08-11 02:11:00,55.6,55.2,29.94,SSW,209,4.0,11.0,99,0.00,,,0.00,0.0,meteohub,2013-08-11 09:11:00,
2013-08-11 02:17:00,55.4,54.9,29.95,WSW,243,4.0,9.0,98,0.00,,,0.00,0.0,meteohub,2013-08-11 09:17:00,
2013-08-11 02:22:00,55.2,54.7,29.95,WSW,251,5.0,13.0,98,0.01,,,0.01,0.0,meteohub,2013-08-11 09:22:00,
2013-08-11 02:27:00,55.4,54.9,29.94,SSW,212,7.0,13.0,98,0.01,,,0.01,0.0,meteohub,2013-08-11 09:27:00,
2013-08-11 02:32:00,55.6,55.2,29.94,WSW,248,7.0,13.0,99,0.01,,,0.01,0.0,meteohub,2013-08-11 09:32:00,
2013-08-11 02:37:00,55.6,55.2,29.94,SW,225,1.0,12.0,99,0.01,,,0.01,0.0,meteohub,2013-08-11 09:37:00,
2013-08-11 02:42:00,55.8,55.4,29.94,WSW,248,4.0,12.0,99,0.01,,,0.01,0.0,meteohub,2013-08-11 09:42:00,
2013-08-11 02:47:00,55.6,55.2,29.94,West,263,2.0,10.0,99,0.01,,,0.01,0.0,meteohub,2013-08-11 09:47:00,
2013-08-11 02:52:00,55.6,55.2,29.94,SW,223,7.0,10.0,99,0.01,,,0.01,0.0,meteohub,2013-08-11 09:52:00,
2013-08-11 02:58:00,55.6,55.2,29.94,NW,323,1.0,13.0,99,0.01,,,0.01,0.0,meteohub,2013-08-11 09:58:00,
2013-08-11 03:03:00,55.4,55.0,29.94,SW,226,4.0,13.0,99,0.01,,,0.01,0.0,meteohub,2013-08-11 10:03:00,
2013-08-11 03:08:00,55.4,54.9,29.94,WSW,239,4.0,13.0,98,0.01,,,0.01,0.0,meteohub,2013-08-11 10:08:00,
2013-08-11 03:13:00,55.4,54.9,29.94,SW,231,5.0,12.0,98,0.01,,,0.01,0.0,meteohub,2013-08-11 10:13:00,
2013-08-11 03:18:00,55.2,54.7,29.94,WNW,290,4.0,12.0,98,0.01,,,0.01,0.0,meteohub,2013-08-11 10:18:00,
2013-08-11 03:23:00,55.2,54.7,29.94,West,268,2.0,12.0,98,0.00,,,0.01,0.0,meteohub,2013-08-11 10:23:00,
2013-08-11 03:29:00,55.0,54.7,29.94,WSW,237,11.0,11.0,99,0.00,,,0.01,0.0,meteohub,2013-08-11 10:29:00,
2013-08-11 03:34:00,55.0,54.7,29.94,SW,235,9.0,11.0,99,0.00,,,0.01,0.0,meteohub,2013-08-11 10:34:00,
2013-08-11 03:39:00,55.0,54.7,29.94,SW,229,10.0,14.0,99,0.00,,,0.01,0.0,meteohub,2013-08-11 10:39:00,
2013-08-11 03:44:00,55.0,54.7,29.94,West,264,3.0,14.0,99,0.00,,,0.01,0.0,meteohub,2013-08-11 10:44:00,
2013-08-11 03:49:00,54.9,54.5,29.94,WSW,255,0.0,14.0,99,0.00,,,0.01,0.0,meteohub,2013-08-11 10:49:00,
2013-08-11 03:54:00,54.9,54.5,29.94,West,259,4.0,12.0,99,0.00,,,0.01,0.0,meteohub,2013-08-11 10:54:00,
2013-08-11 03:59:00,54.7,54.1,29.94,SW,227,2.0,12.0,98,0.00,,,0.01,0.0,meteohub,2013-08-11 10:59:00,
2013-08-11 04:04:00,54.7,54.3,29.94,SW,214,3.0,12.0,99,0.00,,,0.01,0.0,meteohub,2013-08-11 11:04:00,
2013-08-11 04:09:00,54.7,54.3,29.94,SW,226,2.0,12.0,99,0.00,,,0.01,0.0,meteohub,2013-08-11 11:09:00,
2013-08-11 04:14:00,54.7,54.3,29.94,SW,235,2.0,11.0,99,0.00,,,0.01,0.0,meteohub,2013-08-11 11:14:00,
2013-08-11 04:19:00,54.7,54.3,29.94,SW,227,5.0,11.0,99,0.00,,,0.01,0.0,meteohub,2013-08-11 11:19:00,
2013-08-11 04:24:00,54.5,54.1,29.94,SSW,213,4.0,9.0,99,0.00,,,0.01,0.0,meteohub,2013-08-11 11:24:00,
2013-08-11 04:29:00,54.3,54.0,29.94,WSW,250,6.0,6.0,99,0.00,,,0.01,0.0,meteohub,2013-08-11 11:29:00,
2013-08-11 04:35:00,54.3,54.0,29.94,WSW,240,0.0,13.0,99,0.00,,,0.01,0.0,meteohub,2013-08-11 11:35:00,
2013-08-11 04:40:00,54.5,54.1,29.94,SW,223,5.0,13.0,99,0.00,,,0.01,0.0,meteohub,2013-08-11 11:40:00,
2013-08-11 04:45:00,54.5,54.1,29.94,WSW,238,0.0,13.0,99,0.00,,,0.01,0.0,meteohub,2013-08-11 11:45:00,
2013-08-11 04:50:00,54.3,54.0,29.94,WNW,293,2.0,9.0,99,0.00,,,0.01,0.0,meteohub,2013-08-11 11:50:00,
2013-08-11 04:55:00,54.3,54.0,29.94,SW,217,9.0,10.0,99,0.00,,,0.01,0.0,meteohub,2013-08-11 11:55:00,
2013-08-11 05:00:00,54.1,53.8,29.94,NW,305,3.0,12.0,99,0.00,,,0.01,0.0,meteohub,2013-08-11 12:00:00,
2013-08-11 05:06:00,54.1,53.8,29.94,SW,229,5.0,15.0,99,0.00,,,0.01,0.0,meteohub,2013-08-11 12:06:00,
2013-08-11 05:11:00,54.1,53.8,29.94,WSW,243,3.0,15.0,99,0.00,,,0.01,0.0,meteohub,2013-08-11 12:11:00,
2013-08-11 05:16:00,54.1,53.8,29.94,NW,322,4.0,15.0,99,0.00,,,0.01,0.0,meteohub,2013-08-11 12:16:00,
2013-08-11 05:21:00,54.1,53.8,29.94,SW,218,3.0,15.0,99,0.00,,,0.01,0.0,meteohub,2013-08-11 12:21:00,
2013-08-11 05:26:00,54.1,53.8,29.94,West,266,3.0,15.0,99,0.00,,,0.01,0.0,meteohub,2013-08-11 12:26:00,
2013-08-11 05:31:00,54.0,53.6,29.95,West,279,2.0,12.0,99,0.00,,,0.01,0.0,meteohub,2013-08-11 12:31:00,
2013-08-11 05:36:00,54.1,53.8,29.95,SW,232,5.0,12.0,99,0.00,,,0.01,0.0,meteohub,2013-08-11 12:36:00,
2013-08-11 05:41:00,54.1,53.8,29.94,West,266,0.0,12.0,99,0.00,,,0.01,0.0,meteohub,2013-08-11 12:41:00,
2013-08-11 05:46:00,54.1,53.8,29.94,SSW,205,4.0,11.0,99,0.00,,,0.01,0.0,meteohub,2013-08-11 12:46:00,
2013-08-11 05:52:00,54.1,53.8,29.94,NW,304,5.0,11.0,99,0.00,,,0.01,0.0,meteohub,2013-08-11 12:52:00,
2013-08-11 05:57:00,54.1,53.8,29.95,West,259,2.0,11.0,99,0.00,,,0.01,0.0,meteohub,2013-08-11 12:57:00,
2013-08-11 06:02:00,54.1,53.8,29.95,West,267,1.0,10.0,99,0.00,,,0.01,0.0,meteohub,2013-08-11 13:02:00,
2013-08-11 06:07:00,54.1,53.8,29.95,SW,231,1.0,10.0,99,0.00,,,0.01,0.0,meteohub,2013-08-11 13:07:00,
2013-08-11 06:12:00,54.0,53.6,29.95,WSW,242,6.0,9.0,99,0.00,,,0.01,0.0,meteohub,2013-08-11 13:12:00,
2013-08-11 06:17:00,54.1,53.8,29.95,SW,233,5.0,11.0,99,0.00,,,0.01,0.0,meteohub,2013-08-11 13:17:00,
2013-08-11 06:22:00,54.0,53.6,29.95,WSW,245,3.0,11.0,99,0.00,,,0.01,0.0,meteohub,2013-08-11 13:22:00,
2013-08-11 06:27:00,54.0,53.6,29.95,SSW,209,3.0,11.0,99,0.00,,,0.01,0.0,meteohub,2013-08-11 13:27:00,
2013-08-11 06:32:00,54.1,53.8,29.95,WSW,240,2.0,10.0,99,0.00,,,0.01,0.0,meteohub,2013-08-11 13:32:00,
2013-08-11 06:37:00,54.0,53.6,29.95,WSW,252,6.0,10.0,99,0.00,,,0.01,0.0,meteohub,2013-08-11 13:37:00,
2013-08-11 06:42:00,54.0,53.6,29.96,WSW,253,1.0,13.0,99,0.00,,,0.01,5.0,meteohub,2013-08-11 13:42:00,
2013-08-11 06:47:00,54.1,53.8,29.96,WSW,239,3.0,13.0,99,0.00,,,0.01,7.0,meteohub,2013-08-11 13:47:00,
2013-08-11 06:52:00,54.1,53.8,29.96,West,260,1.0,13.0,99,0.00,,,0.01,9.0,meteohub,2013-08-11 13:52:00,
2013-08-11 06:58:00,54.1,53.8,29.96,WNW,288,3.0,9.0,99,0.00,,,0.01,11.0,meteohub,2013-08-11 13:58:00,
2013-08-11 07:03:00,54.1,53.8,29.96,WSW,241,4.0,9.0,99,0.00,,,0.01,12.0,meteohub,2013-08-11 14:03:00,
2013-08-11 07:09:00,54.1,53.8,29.96,SW,230,0.0,10.0,99,0.00,,,0.01,12.0,meteohub,2013-08-11 14:09:00,
2013-08-11 07:14:00,54.1,53.8,29.96,SW,232,2.0,10.0,99,0.00,,,0.01,14.0,meteohub,2013-08-11 14:14:00,
2013-08-11 07:19:00,54.1,53.8,29.96,SW,232,5.0,11.0,99,0.00,,,0.01,18.0,meteohub,2013-08-11 14:19:00,
2013-08-11 07:24:00,54.1,53.8,29.96,West,275,2.0,12.0,99,0.00,,,0.01,19.0,meteohub,2013-08-11 14:24:00,
2013-08-11 07:29:00,54.0,53.6,29.96,WSW,248,1.0,12.0,99,0.00,,,0.01,28.0,meteohub,2013-08-11 14:29:00,
2013-08-11 07:35:00,54.0,53.6,29.96,WSW,246,1.0,12.0,99,0.00,,,0.01,33.0,meteohub,2013-08-11 14:35:00,
2013-08-11 07:40:00,53.8,53.4,29.96,WSW,246,6.0,9.0,99,0.00,,,0.01,33.0,meteohub,2013-08-11 14:40:00,
2013-08-11 07:45:00,53.8,53.4,29.96,West,280,2.0,9.0,99,0.00,,,0.01,40.0,meteohub,2013-08-11 14:45:00,
2013-08-11 07:50:00,53.8,53.4,29.96,SSW,210,7.0,10.0,99,0.00,,,0.01,39.0,meteohub,2013-08-11 14:50:00,
2013-08-11 07:56:00,53.6,53.2,29.96,West,261,6.0,12.0,99,0.00,,,0.01,42.0,meteohub,2013-08-11 14:56:00,
2013-08-11 08:01:00,53.6,53.2,29.96,WSW,240,6.0,12.0,99,0.00,,,0.01,53.0,meteohub,2013-08-11 15:01:00,
2013-08-11 08:07:00,53.8,53.4,29.96,West,274,2.0,12.0,99,0.00,,,0.01,56.0,meteohub,2013-08-11 15:07:00,
2013-08-11 08:12:00,53.8,53.4,29.96,WSW,237,4.0,12.0,99,0.00,,,0.01,65.0,meteohub,2013-08-11 15:12:00,
2013-08-11 08:17:00,53.8,53.4,29.96,West,260,4.0,13.0,99,0.00,,,0.01,83.0,meteohub,2013-08-11 15:17:00,
2013-08-11 08:22:00,53.8,53.4,29.96,WSW,244,4.0,13.0,99,0.00,,,0.01,74.0,meteohub,2013-08-11 15:22:00,
2013-08-11 08:27:00,53.8,53.4,29.96,West,269,4.0,13.0,99,0.00,,,0.01,77.0,meteohub,2013-08-11 15:27:00,
2013-08-11 08:32:00,53.8,53.4,29.96,WSW,240,3.0,11.0,99,0.00,,,0.01,84.0,meteohub,2013-08-11 15:32:00,
2013-08-11 08:37:00,54.0,53.6,29.96,West,275,1.0,11.0,99,0.00,,,0.01,90.0,meteohub,2013-08-11 15:37:00,
2013-08-11 08:42:00,54.1,53.8,29.96,SW,219,8.0,11.0,99,0.00,,,0.01,98.0,meteohub,2013-08-11 15:42:00,
2013-08-11 08:47:00,54.1,53.8,29.97,West,261,5.0,12.0,99,0.00,,,0.01,111.0,meteohub,2013-08-11 15:47:00,
2013-08-11 08:53:00,54.0,53.6,29.96,West,265,3.0,12.0,99,0.00,,,0.01,130.0,meteohub,2013-08-11 15:53:00,
2013-08-11 08:58:00,54.0,53.6,29.96,SW,234,3.0,12.0,99,0.00,,,0.01,121.0,meteohub,2013-08-11 15:58:00,
2013-08-11 09:03:00,54.1,53.8,29.96,West,278,3.0,12.0,99,0.00,,,0.01,134.0,meteohub,2013-08-11 16:03:00,
2013-08-11 09:08:00,54.1,53.8,29.97,SW,230,6.0,12.0,99,0.00,,,0.01,148.0,meteohub,2013-08-11 16:08:00,
2013-08-11 09:13:00,54.1,53.8,29.97,WNW,288,6.0,12.0,99,0.00,,,0.01,158.0,meteohub,2013-08-11 16:13:00,
2013-08-11 09:19:00,54.1,53.8,29.97,SW,236,2.0,10.0,99,0.00,,,0.01,174.0,meteohub,2013-08-11 16:19:00,
2013-08-11 09:24:00,54.0,53.6,29.97,WNW,294,3.0,11.0,99,0.00,,,0.01,179.0,meteohub,2013-08-11 16:24:00,
2013-08-11 09:29:00,54.0,53.6,29.97,WNW,290,0.0,11.0,99,0.00,,,0.01,183.0,meteohub,2013-08-11 16:29:00,
2013-08-11 09:34:00,54.0,53.6,29.97,WNW,283,2.0,11.0,99,0.00,,,0.01,250.0,meteohub,2013-08-11 16:34:00,
2013-08-11 09:41:00,54.0,53.6,29.97,SW,215,4.0,11.0,99,0.00,,,0.01,181.0,meteohub,2013-08-11 16:41:00,
2013-08-11 09:46:00,53.8,53.4,29.97,SW,228,6.0,13.0,99,0.00,,,0.01,188.0,meteohub,2013-08-11 16:46:00,
2013-08-11 09:51:00,54.0,53.6,29.96,SW,225,11.0,13.0,99,0.00,,,0.01,174.0,meteohub,2013-08-11 16:51:00,
2013-08-11 09:56:00,54.1,53.8,29.96,WNW,296,2.0,13.0,99,0.00,,,0.01,172.0,meteohub,2013-08-11 16:56:00,
2013-08-11 10:01:00,54.1,53.8,29.96,SSE,147,3.0,12.0,99,0.00,,,0.01,188.0,meteohub,2013-08-11 17:01:00,
2013-08-11 10:07:00,54.3,54.0,29.96,SW,229,11.0,13.0,99,0.00,,,0.01,207.0,meteohub,2013-08-11 17:07:00,
2013-08-11 10:12:00,54.1,53.8,29.96,West,263,2.0,13.0,99,0.00,,,0.01,199.0,meteohub,2013-08-11 17:12:00,
2013-08-11 10:17:00,54.3,54.0,29.97,SSE,150,4.0,13.0,99,0.00,,,0.01,218.0,meteohub,2013-08-11 17:17:00,
2013-08-11 10:22:00,54.1,53.8,29.97,NW,306,6.0,13.0,99,0.00,,,0.01,225.0,meteohub,2013-08-11 17:22:00,
2013-08-11 10:27:00,54.3,54.0,29.97,SSW,213,5.0,15.0,99,0.00,,,0.01,216.0,meteohub,2013-08-11 17:27:00,
2013-08-11 10:32:00,54.3,54.0,29.97,SSE,163,0.0,15.0,99,0.00,,,0.01,218.0,meteohub,2013-08-11 17:32:00,
2013-08-11 10:37:00,54.7,54.3,29.97,WSW,238,11.0,11.0,99,0.00,,,0.01,232.0,meteohub,2013-08-11 17:37:00,
2013-08-11 10:42:00,54.7,54.3,29.97,SW,229,7.0,12.0,99,0.00,,,0.01,239.0,meteohub,2013-08-11 17:42:00,
2013-08-11 10:47:00,54.7,54.3,29.97,West,271,3.0,14.0,99,0.00,,,0.01,246.0,meteohub,2013-08-11 17:47:00,
2013-08-11 10:52:00,54.7,54.3,29.97,WSW,252,4.0,14.0,99,0.00,,,0.01,294.0,meteohub,2013-08-11 17:52:00,
2013-08-11 10:57:00,54.7,54.3,29.97,SW,231,2.0,14.0,99,0.00,,,0.01,267.0,meteohub,2013-08-11 17:57:00,
2013-08-11 11:02:00,54.9,54.5,29.97,SW,229,6.0,12.0,99,0.00,,,0.01,302.0,meteohub,2013-08-11 18:02:00,
2013-08-11 11:07:00,54.9,54.3,29.96,WSW,247,3.0,16.0,98,0.00,,,0.01,274.0,meteohub,2013-08-11 18:07:00,
2013-08-11 11:12:00,54.9,54.3,29.96,SW,219,11.0,16.0,98,0.00,,,0.01,287.0,meteohub,2013-08-11 18:12:00,
2013-08-11 11:17:00,55.0,54.5,29.96,SW,230,3.0,16.0,98,0.00,,,0.01,262.0,meteohub,2013-08-11 18:17:00,
2013-08-11 11:22:00,55.0,54.5,29.96,SW,233,5.0,15.0,98,0.00,,,0.01,250.0,meteohub,2013-08-11 18:22:00,
2013-08-11 11:27:00,55.2,54.7,29.96,SSW,213,8.0,15.0,98,0.00,,,0.01,278.0,meteohub,2013-08-11 18:27:00,
2013-08-11 11:32:00,55.2,54.7,29.96,SW,225,3.0,14.0,98,0.00,,,0.01,292.0,meteohub,2013-08-11 18:32:00,
2013-08-11 11:37:00,55.2,54.7,29.96,WSW,240,11.0,14.0,98,0.00,,,0.01,330.0,meteohub,2013-08-11 18:37:00,
2013-08-11 11:42:00,55.6,54.7,29.96,West,264,2.0,14.0,97,0.00,,,0.01,346.0,meteohub,2013-08-11 18:42:00,
2013-08-11 11:47:00,55.8,54.7,29.96,WSW,242,15.0,15.0,96,0.00,,,0.01,339.0,meteohub,2013-08-11 18:47:00,
2013-08-11 11:52:00,55.8,54.7,29.96,NW,323,11.0,15.0,96,0.00,,,0.01,345.0,meteohub,2013-08-11 18:52:00,
2013-08-11 11:57:00,56.1,55.0,29.96,WSW,242,1.0,16.0,96,0.00,,,0.01,362.0,meteohub,2013-08-11 18:57:00,
2013-08-11 12:02:00,56.5,55.0,29.96,West,263,5.0,16.0,95,0.00,,,0.01,360.0,meteohub,2013-08-11 19:02:00,
2013-08-11 12:07:00,56.1,54.7,29.96,SW,227,3.0,16.0,95,0.00,,,0.01,376.0,meteohub,2013-08-11 19:07:00,
2013-08-11 12:12:00,56.7,55.0,29.96,SW,236,8.0,21.0,94,0.00,,,0.01,373.0,meteohub,2013-08-11 19:12:00,
2013-08-11 12:18:00,56.7,55.0,29.95,WSW,257,6.0,21.0,94,0.00,,,0.01,394.0,meteohub,2013-08-11 19:18:00,
2013-08-11 12:23:00,56.8,55.2,29.95,West,267,9.0,22.0,94,0.00,,,0.01,401.0,meteohub,2013-08-11 19:23:00,
2013-08-11 12:29:00,56.8,55.2,29.95,SW,229,13.0,22.0,94,0.00,,,0.01,404.0,meteohub,2013-08-11 19:29:00,
2013-08-11 12:35:00,57.2,55.2,29.95,WSW,237,12.0,22.0,93,0.00,,,0.01,418.0,meteohub,2013-08-11 19:35:00,
2013-08-11 12:40:00,57.0,55.0,29.95,WSW,257,7.0,17.0,93,0.00,,,0.01,434.0,meteohub,2013-08-11 19:40:00,
2013-08-11 12:45:00,57.2,54.9,29.95,WSW,243,9.0,17.0,92,0.00,,,0.01,438.0,meteohub,2013-08-11 19:45:00,
2013-08-11 12:50:00,57.2,54.9,29.95,SW,234,14.0,21.0,92,0.00,,,0.01,397.0,meteohub,2013-08-11 19:50:00,
2013-08-11 12:56:00,57.2,54.9,29.95,West,260,12.0,21.0,92,0.00,,,0.01,406.0,meteohub,2013-08-11 19:56:00,
2013-08-11 13:01:00,57.4,55.0,29.95,SW,216,6.0,21.0,92,0.00,,,0.01,427.0,meteohub,2013-08-11 20:01:00,
2013-08-11 13:06:00,57.4,55.0,29.95,South,182,2.0,20.0,92,0.00,,,0.01,577.0,meteohub,2013-08-11 20:06:00,
2013-08-11 13:11:00,57.9,55.2,29.95,SW,224,14.0,20.0,91,0.00,,,0.01,462.0,meteohub,2013-08-11 20:11:00,
2013-08-11 13:17:00,57.7,55.2,29.95,WSW,240,4.0,20.0,91,0.00,,,0.01,461.0,meteohub,2013-08-11 20:17:00,
2013-08-11 13:22:00,57.7,55.2,29.94,WSW,252,6.0,17.0,91,0.00,,,0.01,454.0,meteohub,2013-08-11 20:22:00,
2013-08-11 13:27:00,58.1,55.4,29.95,WSW,242,15.0,17.0,91,0.00,,,0.01,429.0,meteohub,2013-08-11 20:27:00,
2013-08-11 13:32:00,58.3,55.6,29.94,NNW,342,5.0,16.0,91,0.00,,,0.01,452.0,meteohub,2013-08-11 20:32:00,
2013-08-11 13:37:00,58.3,55.4,29.94,WSW,248,2.0,18.0,90,0.00,,,0.01,510.0,meteohub,2013-08-11 20:37:00,
2013-08-11 13:42:00,57.9,55.2,29.94,SSW,204,5.0,20.0,91,0.00,,,0.01,485.0,meteohub,2013-08-11 20:42:00,
2013-08-11 13:47:00,58.1,55.4,29.94,WSW,244,11.0,20.0,91,0.00,,,0.01,534.0,meteohub,2013-08-11 20:47:00,
2013-08-11 13:52:00,58.3,55.4,29.94,North,0,4.0,20.0,90,0.00,,,0.01,538.0,meteohub,2013-08-11 20:52:00,
2013-08-11 13:57:00,57.9,55.2,29.94,West,262,10.0,20.0,91,0.00,,,0.01,461.0,meteohub,2013-08-11 20:57:00,
2013-08-11 14:02:00,57.9,55.2,29.94,SW,225,12.0,22.0,91,0.00,,,0.01,559.0,meteohub,2013-08-11 21:02:00,
2013-08-11 14:07:00,58.3,55.4,29.94,SW,228,7.0,22.0,90,0.00,,,0.01,524.0,meteohub,2013-08-11 21:07:00,
2013-08-11 14:12:00,58.3,55.4,29.94,West,265,10.0,18.0,90,0.00,,,0.01,580.0,meteohub,2013-08-11 21:12:00,
2013-08-11 14:17:00,58.5,55.6,29.94,SSW,196,10.0,18.0,90,0.00,,,0.01,503.0,meteohub,2013-08-11 21:17:00,
2013-08-11 14:22:00,58.3,55.4,29.94,WNW,296,3.0,18.0,90,0.00,,,0.01,575.0,meteohub,2013-08-11 21:22:00,
2013-08-11 14:28:00,59.0,56.1,29.94,SW,224,9.0,18.0,90,0.00,,,0.01,582.0,meteohub,2013-08-11 21:28:00,
2013-08-11 14:33:00,59.2,55.9,29.94,WSW,240,3.0,18.0,89,0.00,,,0.01,540.0,meteohub,2013-08-11 21:33:00,
2013-08-11 14:38:00,59.0,55.4,29.93,NNW,336,7.0,18.0,88,0.00,,,0.01,547.0,meteohub,2013-08-11 21:38:00,
2013-08-11 14:43:00,58.6,55.8,29.93,West,281,5.0,18.0,90,0.00,,,0.01,512.0,meteohub,2013-08-11 21:43:00,
2013-08-11 14:49:00,58.6,55.4,29.93,West,281,9.0,18.0,89,0.00,,,0.01,517.0,meteohub,2013-08-11 21:49:00,
2013-08-11 14:54:00,58.6,55.8,29.93,West,270,7.0,18.0,90,0.00,,,0.01,504.0,meteohub,2013-08-11 21:54:00,
2013-08-11 14:59:00,58.5,55.2,29.93,WSW,237,6.0,16.0,89,0.00,,,0.01,519.0,meteohub,2013-08-11 21:59:00,
2013-08-11 15:04:00,58.6,55.8,29.93,SW,221,10.0,17.0,90,0.00,,,0.01,577.0,meteohub,2013-08-11 22:04:00,
2013-08-11 15:09:00,59.2,55.9,29.93,West,261,5.0,18.0,89,0.00,,,0.01,587.0,meteohub,2013-08-11 22:09:00,
2013-08-11 15:14:00,58.8,55.6,29.92,ESE,116,4.0,18.0,89,0.00,,,0.01,455.0,meteohub,2013-08-11 22:14:00,
2013-08-11 15:20:00,58.6,55.4,29.92,West,279,3.0,20.0,89,0.00,,,0.01,438.0,meteohub,2013-08-11 22:20:00,
2013-08-11 15:25:00,58.5,55.6,29.92,WSW,257,1.0,20.0,90,0.00,,,0.01,446.0,meteohub,2013-08-11 22:25:00,
2013-08-11 15:30:00,58.8,55.9,29.92,WNW,288,4.0,20.0,90,0.00,,,0.01,483.0,meteohub,2013-08-11 22:30:00,
2013-08-11 15:35:00,59.0,55.8,29.92,SE,140,3.0,19.0,89,0.00,,,0.01,418.0,meteohub,2013-08-11 22:35:00,
2013-08-11 15:40:00,58.8,55.6,29.92,NW,315,6.0,15.0,89,0.00,,,0.01,475.0,meteohub,2013-08-11 22:40:00,
2013-08-11 15:45:00,58.5,55.6,29.92,SW,230,11.0,17.0,90,0.00,,,0.01,418.0,meteohub,2013-08-11 22:45:00,
2013-08-11 15:51:00,58.5,55.6,29.91,West,267,7.0,18.0,90,0.00,,,0.01,455.0,meteohub,2013-08-11 22:51:00,
2013-08-11 15:56:00,58.6,55.8,29.91,WNW,286,10.0,18.0,90,0.00,,,0.01,429.0,meteohub,2013-08-11 22:56:00,
2013-08-11 16:01:00,58.5,55.6,29.91,SW,217,7.0,18.0,90,0.00,,,0.01,355.0,meteohub,2013-08-11 23:01:00,
2013-08-11 16:06:00,58.3,55.6,29.91,WSW,238,5.0,25.0,91,0.00,,,0.01,388.0,meteohub,2013-08-11 23:06:00,
2013-08-11 16:11:00,58.1,55.8,29.91,West,271,5.0,25.0,92,0.00,,,0.01,341.0,meteohub,2013-08-11 23:11:00,
2013-08-11 16:16:00,57.7,55.4,29.91,West,261,12.0,19.0,92,0.00,,,0.01,325.0,meteohub,2013-08-11 23:16:00,
2013-08-11 16:21:00,57.9,55.2,29.91,WSW,246,12.0,19.0,91,0.00,,,0.01,276.0,meteohub,2013-08-11 23:21:00,
2013-08-11 16:27:00,57.7,55.4,29.92,SW,220,5.0,19.0,92,0.00,,,0.01,285.0,meteohub,2013-08-11 23:27:00,
2013-08-11 16:32:00,57.7,55.4,29.91,SSW,208,6.0,20.0,92,0.00,,,0.01,278.0,meteohub,2013-08-11 23:32:00,
2013-08-11 16:37:00,57.9,55.6,29.91,SW,231,6.0,20.0,92,0.00,,,0.01,287.0,meteohub,2013-08-11 23:37:00,
2013-08-11 16:43:00,57.9,55.6,29.91,WSW,242,12.0,20.0,92,0.00,,,0.01,253.0,meteohub,2013-08-11 23:43:00,
2013-08-11 16:48:00,57.4,55.0,29.91,SW,226,4.0,17.0,92,0.00,,,0.01,264.0,meteohub,2013-08-11 23:48:00,
2013-08-11 16:53:00,57.4,55.0,29.91,West,271,8.0,17.0,92,0.00,,,0.01,243.0,meteohub,2013-08-11 23:53:00,
2013-08-11 16:58:00,57.0,54.7,29.91,SW,234,5.0,18.0,92,0.00,,,0.01,225.0,meteohub,2013-08-11 23:58:00,
2013-08-11 17:04:00,57.0,55.0,29.91,SW,227,6.0,18.0,93,0.00,,,0.01,213.0,meteohub,2013-08-12 00:04:00,
2013-08-11 17:09:00,57.0,55.0,29.90,WSW,250,5.0,18.0,93,0.00,,,0.00,209.0,meteohub,2013-08-12 00:09:00,
2013-08-11 17:14:00,56.8,54.9,29.90,WSW,244,8.0,21.0,93,0.00,,,0.00,213.0,meteohub,2013-08-12 00:14:00,
2013-08-11 17:19:00,57.0,55.2,29.90,West,271,3.0,21.0,94,0.00,,,0.00,225.0,meteohub,2013-08-12 00:19:00,
2013-08-11 17:24:00,56.8,54.9,29.89,WSW,237,5.0,17.0,93,0.00,,,0.00,211.0,meteohub,2013-08-12 00:24:00,
2013-08-11 17:29:00,56.7,55.0,29.89,WNW,295,14.0,14.0,94,0.00,,,0.00,178.0,meteohub,2013-08-12 00:29:00,
2013-08-11 17:34:00,56.5,55.0,29.90,WSW,250,5.0,16.0,95,0.00,,,0.00,165.0,meteohub,2013-08-12 00:34:00,
2013-08-11 17:40:00,56.5,55.0,29.89,SW,218,10.0,16.0,95,0.00,,,0.00,151.0,meteohub,2013-08-12 00:40:00,
2013-08-11 17:45:00,56.5,55.0,29.89,WSW,243,5.0,18.0,95,0.00,,,0.00,132.0,meteohub,2013-08-12 00:45:00,
2013-08-11 17:50:00,56.5,55.0,29.89,West,279,4.0,18.0,95,0.00,,,0.00,128.0,meteohub,2013-08-12 00:50:00,
2013-08-11 17:55:00,56.5,55.0,29.89,West,271,7.0,17.0,95,0.00,,,0.00,137.0,meteohub,2013-08-12 00:55:00,
2013-08-11 18:00:00,56.3,54.9,29.89,SSW,206,11.0,17.0,95,0.00,,,0.00,118.0,meteohub,2013-08-12 01:00:00,
2013-08-11 18:05:00,56.1,54.7,29.89,West,278,13.0,16.0,95,0.00,,,0.00,114.0,meteohub,2013-08-12 01:05:00,
2013-08-11 18:11:00,56.1,54.7,29.89,West,263,18.0,19.0,95,0.00,,,0.00,104.0,meteohub,2013-08-12 01:11:00,
2013-08-11 18:16:00,56.1,54.7,29.89,WSW,252,6.0,21.0,95,0.00,,,0.00,102.0,meteohub,2013-08-12 01:16:00,
2013-08-11 18:22:00,56.1,54.7,29.89,SW,232,8.0,21.0,95,0.00,,,0.00,81.0,meteohub,2013-08-12 01:22:00,
2013-08-11 18:27:00,56.1,55.0,29.89,West,269,7.0,21.0,96,0.00,,,0.00,90.0,meteohub,2013-08-12 01:27:00,
2013-08-11 18:32:00,56.1,54.7,29.88,West,269,4.0,20.0,95,0.00,,,0.00,74.0,meteohub,2013-08-12 01:32:00,
2013-08-11 18:37:00,55.9,54.9,29.88,NW,325,4.0,20.0,96,0.00,,,0.00,79.0,meteohub,2013-08-12 01:37:00,
2013-08-11 18:43:00,55.8,54.3,29.88,WSW,247,14.0,15.0,95,0.00,,,0.00,56.0,meteohub,2013-08-12 01:43:00,
2013-08-11 18:48:00,55.8,54.7,29.88,SSW,198,5.0,15.0,96,0.00,,,0.00,62.0,meteohub,2013-08-12 01:48:00,
2013-08-11 18:53:00,55.6,54.5,29.88,WNW,289,3.0,15.0,96,0.00,,,0.00,58.0,meteohub,2013-08-12 01:53:00,
2013-08-11 18:58:00,55.4,54.3,29.88,West,277,4.0,15.0,96,0.00,,,0.00,51.0,meteohub,2013-08-12 01:58:00,
2013-08-11 19:03:00,55.2,54.1,29.88,SSW,211,12.0,18.0,96,0.00,,,0.00,39.0,meteohub,2013-08-12 02:03:00,
2013-08-11 19:08:00,55.0,54.0,29.88,West,263,4.0,18.0,96,0.00,,,0.00,33.0,meteohub,2013-08-12 02:08:00,
2013-08-11 19:14:00,55.0,54.1,29.89,WNW,286,6.0,16.0,97,0.00,,,0.00,35.0,meteohub,2013-08-12 02:14:00,
2013-08-11 19:19:00,55.0,54.1,29.89,WSW,246,6.0,16.0,97,0.00,,,0.00,30.0,meteohub,2013-08-12 02:19:00,
2013-08-11 19:24:00,55.0,54.1,29.89,WNW,292,12.0,15.0,97,0.00,,,0.00,25.0,meteohub,2013-08-12 02:24:00,
2013-08-11 19:29:00,54.9,54.0,29.89,SW,225,7.0,15.0,97,0.00,,,0.00,21.0,meteohub,2013-08-12 02:29:00,
2013-08-11 19:34:00,54.9,54.0,29.89,WNW,285,9.0,16.0,97,0.00,,,0.00,14.0,meteohub,2013-08-12 02:34:00,
2013-08-11 19:39:00,54.7,53.8,29.89,SSW,203,4.0,16.0,97,0.00,,,0.00,11.0,meteohub,2013-08-12 02:39:00,
2013-08-11 19:44:00,54.7,53.8,29.89,WSW,257,1.0,16.0,97,0.00,,,0.00,11.0,meteohub,2013-08-12 02:44:00,
2013-08-11 19:50:00,54.7,53.8,29.89,West,272,1.0,18.0,97,0.00,,,0.00,7.0,meteohub,2013-08-12 02:50:00,
2013-08-11 19:55:00,54.5,53.6,29.89,WSW,244,5.0,18.0,97,0.00,,,0.00,5.0,meteohub,2013-08-12 02:55:00,
2013-08-11 20:00:00,54.5,53.6,29.89,SSW,212,5.0,18.0,97,0.00,,,0.00,0.0,meteohub,2013-08-12 03:00:00,
2013-08-11 20:06:00,54.5,53.6,29.90,WSW,256,4.0,14.0,97,0.00,,,0.00,0.0,meteohub,2013-08-12 03:06:00,
2013-08-11 20:11:00,54.5,53.6,29.89,SW,234,1.0,14.0,97,0.00,,,0.00,0.0,meteohub,2013-08-12 03:11:00,
2013-08-11 20:16:00,54.5,53.6,29.90,WSW,241,7.0,15.0,97,0.00,,,0.00,0.0,meteohub,2013-08-12 03:16:00,
2013-08-11 20:21:00,54.3,53.8,29.90,WSW,238,15.0,15.0,98,0.00,,,0.00,0.0,meteohub,2013-08-12 03:21:00,
2013-08-11 20:26:00,54.3,53.8,29.90,WSW,253,4.0,16.0,98,0.00,,,0.00,0.0,meteohub,2013-08-12 03:26:00,
2013-08-11 20:32:00,54.3,53.8,29.90,WSW,242,4.0,16.0,98,0.00,,,0.00,0.0,meteohub,2013-08-12 03:32:00,
2013-08-11 20:37:00,54.3,53.8,29.90,SSW,196,4.0,16.0,98,0.00,,,0.00,0.0,meteohub,2013-08-12 03:37:00,
2013-08-11 20:42:00,54.3,53.8,29.90,West,268,3.0,15.0,98,0.00,,,0.00,0.0,meteohub,2013-08-12 03:42:00,
2013-08-11 20:47:00,54.3,53.8,29.90,SW,225,3.0,18.0,98,0.00,,,0.00,0.0,meteohub,2013-08-12 03:47:00,
2013-08-11 20:52:00,54.1,53.6,29.90,WSW,250,2.0,18.0,98,0.00,,,0.00,0.0,meteohub,2013-08-12 03:52:00,
2013-08-11 20:57:00,54.1,53.6,29.90,WNW,302,5.0,14.0,98,0.00,,,0.00,0.0,meteohub,2013-08-12 03:57:00,
2013-08-11 21:01:00,54.1,53.6,29.90,West,259,3.0,14.0,98,0.00,,,0.00,0.0,meteohub,2013-08-12 04:01:00,
2013-08-11 21:04:00,54.1,53.6,29.91,West,279,6.0,14.0,98,0.00,,,0.00,0.0,meteohub,2013-08-12 04:04:00,
2013-08-11 21:09:00,54.1,53.6,29.91,SW,231,4.0,16.0,98,0.00,,,0.00,0.0,meteohub,2013-08-12 04:09:00,
2013-08-11 21:14:00,54.1,53.6,29.91,SW,229,7.0,16.0,98,0.00,,,0.00,0.0,meteohub,2013-08-12 04:14:00,
2013-08-11 21:19:00,54.1,53.6,29.91,SW,234,7.0,16.0,98,0.00,,,0.00,0.0,meteohub,2013-08-12 04:19:00,
2013-08-11 21:24:00,54.1,53.6,29.91,WSW,249,5.0,13.0,98,0.00,,,0.00,0.0,meteohub,2013-08-12 04:24:00,
2013-08-11 21:29:00,54.1,53.6,29.91,WSW,241,5.0,13.0,98,0.00,,,0.00,0.0,meteohub,2013-08-12 04:29:00,
2013-08-11 21:34:00,54.1,53.6,29.91,West,259,4.0,13.0,98,0.00,,,0.00,0.0,meteohub,2013-08-12 04:34:00,
2013-08-11 21:39:00,54.0,53.4,29.91,WNW,288,2.0,13.0,98,0.00,,,0.00,0.0,meteohub,2013-08-12 04:39:00,
2013-08-11 21:44:00,54.0,53.4,29.91,West,275,6.0,15.0,98,0.00,,,0.00,0.0,meteohub,2013-08-12 04:44:00,
2013-08-11 21:49:00,54.0,53.4,29.91,WNW,299,6.0,15.0,98,0.00,,,0.00,0.0,meteohub,2013-08-12 04:49:00,
2013-08-11 21:54:00,54.0,53.4,29.91,WSW,248,9.0,15.0,98,0.00,,,0.00,0.0,meteohub,2013-08-12 04:54:00,
2013-08-11 21:59:00,54.0,53.4,29.92,SW,220,11.0,14.0,98,0.00,,,0.00,0.0,meteohub,2013-08-12 04:59:00,
2013-08-11 22:04:00,54.0,53.4,29.92,West,277,1.0,14.0,98,0.00,,,0.00,0.0,meteohub,2013-08-12 05:04:00,
2013-08-11 22:09:00,54.0,53.4,29.92,WSW,252,3.0,13.0,98,0.00,,,0.00,0.0,meteohub,2013-08-12 05:09:00,
2013-08-11 22:14:00,54.1,53.6,29.92,West,271,4.0,11.0,98,0.00,,,0.00,0.0,meteohub,2013-08-12 05:14:00,
2013-08-11 22:19:00,54.0,53.4,29.91,SW,221,10.0,10.0,98,0.00,,,0.00,0.0,meteohub,2013-08-12 05:19:00,
2013-08-11 22:24:00,54.0,53.6,29.92,West,271,5.0,10.0,99,0.00,,,0.00,0.0,meteohub,2013-08-12 05:24:00,
2013-08-11 22:29:00,53.8,53.4,29.91,WSW,248,4.0,11.0,99,0.00,,,0.00,0.0,meteohub,2013-08-12 05:29:00,
2013-08-11 22:34:00,53.8,53.4,29.91,WNW,283,2.0,11.0,99,0.00,,,0.00,0.0,meteohub,2013-08-12 05:34:00,
2013-08-11 22:39:00,53.8,53.4,29.92,West,265,4.0,12.0,99,0.00,,,0.00,0.0,meteohub,2013-08-12 05:39:00,
2013-08-11 22:44:00,53.8,53.4,29.92,WSW,250,3.0,13.0,99,0.00,,,0.00,0.0,meteohub,2013-08-12 05:44:00,
2013-08-11 22:49:00,54.0,53.6,29.91,SSW,202,4.0,14.0,99,0.00,,,0.00,0.0,meteohub,2013-08-12 05:49:00,
2013-08-11 22:54:00,54.0,53.6,29.91,NW,313,2.0,14.0,99,0.00,,,0.00,0.0,meteohub,2013-08-12 05:54:00,
2013-08-11 22:59:00,53.8,53.4,29.91,WSW,254,12.0,12.0,99,0.00,,,0.00,0.0,meteohub,2013-08-12 05:59:00,
2013-08-11 23:04:00,53.8,53.4,29.91,NW,309,2.0,13.0,99,0.00,,,0.00,0.0,meteohub,2013-08-12 06:04:00,
2013-08-11 23:09:00,53.6,53.1,29.91,West,273,2.0,13.0,98,0.00,,,0.00,0.0,meteohub,2013-08-12 06:09:00,
2013-08-11 23:14:00,53.8,53.4,29.91,SW,233,2.0,13.0,99,0.00,,,0.00,0.0,meteohub,2013-08-12 06:14:00,
2013-08-11 23:19:00,53.8,53.4,29.91,West,276,3.0,11.0,99,0.00,,,0.00,0.0,meteohub,2013-08-12 06:19:00,
2013-08-11 23:24:00,53.8,53.4,29.91,NW,317,1.0,11.0,99,0.00,,,0.00,0.0,meteohub,2013-08-12 06:24:00,
2013-08-11 23:29:00,53.8,53.4,29.91,SW,229,2.0,14.0,99,0.00,,,0.00,0.0,meteohub,2013-08-12 06:29:00,
2013-08-11 23:35:00,53.8,53.4,29.91,SW,228,3.0,14.0,99,0.00,,,0.00,0.0,meteohub,2013-08-12 06:35:00,
2013-08-11 23:40:00,53.8,53.4,29.91,SW,235,11.0,14.0,99,0.00,,,0.00,0.0,meteohub,2013-08-12 06:40:00,
2013-08-11 23:45:00,53.8,53.4,29.91,SW,236,7.0,11.0,99,0.00,,,0.00,0.0,meteohub,2013-08-12 06:45:00,
2013-08-11 23:50:00,53.8,53.4,29.91,SW,223,6.0,11.0,99,0.00,,,0.00,0.0,meteohub,2013-08-12 06:50:00,
2013-08-11 23:55:00,53.8,53.4,29.92,SSW,193,6.0,12.0,99,0.00,,,0.00,0.0,meteohub,2013-08-12 06:55:00,